Time;durP1;ratioP1;P1;durP2;ratioP2;P2;SDS_P1;SDS_P2;PMS_P1;PMS_P2;Temp;Humidity;BMP_temperature;BMP_pressure;BME280_temperature;BME280_humidity;BME280_pressure;Samples;Min_cycle;Max_cycle;Signal;HPM_P1;HPM_P2
2022/07/02 00:01:38;;;;;;;1.10;0.70;;;22.00;67.30;;;;;;6277768;28;20234;-68
2022/07/02 00:04:47;;;;;;;0.70;0.70;;;21.80;67.60;;;;;;6277924;28;20545;-68
2022/07/02 00:07:51;;;;;;;0.90;0.70;;;21.90;67.60;;;;;;6277136;28;20238;-68
2022/07/02 00:10:56;;;;;;;2.17;1.13;;;21.80;68.10;;;;;;6277094;28;20230;-68
2022/07/02 00:13:59;;;;;;;1.10;0.70;;;21.80;67.60;;;;;;6275792;28;20231;-68
2022/07/02 00:17:04;;;;;;;0.80;0.53;;;21.70;67.90;;;;;;6274290;28;20227;-68
2022/07/02 00:20:08;;;;;;;0.57;0.40;;;21.50;68.30;;;;;;6276489;28;20219;-68
2022/07/02 00:23:12;;;;;;;1.83;0.40;;;21.50;67.80;;;;;;6276243;28;20517;-68
2022/07/02 00:26:18;;;;;;;0.80;0.50;;;21.50;68.70;;;;;;6276952;28;20527;-66
2022/07/02 00:29:28;;;;;;;2.97;0.50;;;21.30;67.70;;;;;;6276823;28;20232;-65
2022/07/02 00:32:35;;;;;;;0.83;0.50;;;21.30;68.00;;;;;;6277148;28;20223;-65
2022/07/02 00:35:39;;;;;;;1.47;0.50;;;21.30;67.80;;;;;;6267195;28;20300;-65
2022/07/02 00:38:42;;;;;;;0.90;0.60;;;21.20;67.20;;;;;;6276652;28;20235;-65
2022/07/02 00:41:47;;;;;;;0.90;0.40;;;21.20;67.30;;;;;;6276668;28;20223;-64
2022/07/02 00:44:51;;;;;;;1.67;0.53;;;21.20;67.40;;;;;;6276545;28;20228;-66
2022/07/02 00:47:56;;;;;;;0.60;0.40;;;21.20;67.10;;;;;;6275933;28;20219;-68
2022/07/02 00:50:59;;;;;;;0.70;0.53;;;21.30;68.40;;;;;;6273289;28;20695;-68
2022/07/02 00:54:03;;;;;;;1.53;0.40;;;21.20;67.40;;;;;;6275757;28;20712;-65
2022/07/02 00:57:07;;;;;;;1.70;0.40;;;21.20;67.30;;;;;;6275351;28;20224;-65
2022/07/02 01:00:10;;;;;;;0.97;0.60;;;21.10;66.80;;;;;;6275106;28;20239;-67
2022/07/02 01:03:18;;;;;;;1.00;0.50;;;21.10;67.10;;;;;;6276139;28;20685;-67
2022/07/02 01:06:24;;;;;;;0.90;0.50;;;21.10;67.30;;;;;;6275820;28;20586;-67
2022/07/02 01:12:50;;;;;;;0.80;0.53;;;21.00;67.00;;;;;;6275793;28;20236;-67
2022/07/02 01:15:54;;;;;;;0.80;0.60;;;21.00;67.30;;;;;;6275812;28;20526;-67
2022/07/02 01:18:58;;;;;;;0.83;0.70;;;21.00;67.10;;;;;;6275971;28;20224;-67
2022/07/02 01:22:15;;;;;;;0.50;0.40;;;21.00;67.00;;;;;;6275994;28;20200;-67
2022/07/02 01:25:18;;;;;;;0.60;0.40;;;20.80;67.00;;;;;;6275597;28;20224;-67
2022/07/02 01:28:22;;;;;;;0.70;0.50;;;20.90;66.80;;;;;;6275451;28;20228;-65
2022/07/02 01:31:25;;;;;;;0.70;0.40;;;20.90;67.10;;;;;;6275945;28;20230;-64
2022/07/02 01:34:29;;;;;;;1.00;0.57;;;20.80;67.30;;;;;;6275317;28;20234;-64
2022/07/02 01:37:33;;;;;;;0.70;0.40;;;20.90;66.80;;;;;;6271025;28;20235;-64
2022/07/02 01:40:36;;;;;;;2.23;0.60;;;20.90;66.70;;;;;;6275574;28;20238;-66
2022/07/02 01:43:39;;;;;;;0.70;0.50;;;20.90;66.80;;;;;;6278982;28;20238;-67
2022/07/02 01:46:45;;;;;;;1.30;0.50;;;20.80;66.80;;;;;;6279758;28;20234;-68
2022/07/02 01:49:49;;;;;;;0.73;0.60;;;20.80;66.80;;;;;;6279269;28;20227;-67
2022/07/02 01:52:56;;;;;;;0.80;0.40;;;20.80;66.90;;;;;;6278598;28;20228;-67
2022/07/02 01:55:59;;;;;;;0.93;0.70;;;20.80;67.30;;;;;;6278501;28;20230;-67
2022/07/02 01:59:03;;;;;;;1.20;0.47;;;20.90;66.90;;;;;;6277137;28;20223;-68
2022/07/02 02:02:07;;;;;;;4.83;0.60;;;20.90;66.50;;;;;;6277781;28;20669;-68
2022/07/02 02:05:10;;;;;;;0.80;0.50;;;20.90;66.60;;;;;;6278249;28;20227;-68
2022/07/02 02:08:14;;;;;;;0.63;0.53;;;20.90;66.60;;;;;;6277126;28;20701;-68
2022/07/02 02:11:17;;;;;;;0.97;0.47;;;20.80;66.80;;;;;;6276820;28;20684;-68
2022/07/02 02:14:21;;;;;;;0.97;0.43;;;20.80;67.20;;;;;;6275423;28;20223;-66
2022/07/02 02:17:24;;;;;;;2.00;0.70;;;20.80;67.80;;;;;;6275158;28;20277;-66
2022/07/02 02:20:27;;;;;;;1.13;0.70;;;20.80;67.50;;;;;;6275355;28;20243;-68
2022/07/02 02:23:31;;;;;;;0.70;0.43;;;20.80;66.80;;;;;;6275559;28;20242;-68
2022/07/02 02:26:34;;;;;;;0.90;0.50;;;20.70;67.40;;;;;;6274723;28;20655;-67
2022/07/02 02:29:37;;;;;;;1.47;0.63;;;20.70;67.30;;;;;;6277135;28;20246;-67
2022/07/02 02:32:41;;;;;;;0.90;0.57;;;20.70;68.60;;;;;;6274825;28;20907;-66
2022/07/02 02:35:44;;;;;;;0.70;0.60;;;20.60;67.70;;;;;;6274433;28;20571;-66
2022/07/02 02:38:48;;;;;;;0.50;0.50;;;20.40;68.10;;;;;;6274209;28;20231;-66
2022/07/02 02:41:52;;;;;;;0.73;0.50;;;20.40;68.30;;;;;;6269824;28;20552;-67
2022/07/02 02:44:55;;;;;;;0.93;0.60;;;20.30;68.90;;;;;;6274248;28;20609;-66
2022/07/02 02:47:58;;;;;;;2.20;0.73;;;20.30;69.10;;;;;;6274462;28;20238;-67
2022/07/02 02:51:01;;;;;;;0.60;0.50;;;20.20;69.20;;;;;;6274333;28;20228;-67
2022/07/02 02:54:06;;;;;;;0.93;0.40;;;20.20;69.20;;;;;;6274692;28;20310;-64
2022/07/02 02:57:09;;;;;;;1.10;0.40;;;20.10;68.80;;;;;;6274067;28;20239;-64
2022/07/02 03:00:13;;;;;;;0.67;0.50;;;20.20;68.70;;;;;;6273747;28;20228;-64
2022/07/02 03:03:16;;;;;;;0.70;0.50;;;20.20;68.10;;;;;;6274173;28;20238;-64
2022/07/02 03:06:20;;;;;;;1.33;0.40;;;20.30;68.00;;;;;;6274039;28;20227;-67
2022/07/02 03:09:24;;;;;;;0.80;0.40;;;20.40;67.80;;;;;;6275114;28;20243;-67
2022/07/02 03:12:28;;;;;;;0.83;0.40;;;20.40;66.70;;;;;;6274588;28;20254;-67
2022/07/02 03:15:31;;;;;;;0.60;0.37;;;20.40;66.00;;;;;;6274018;28;20227;-68
2022/07/02 03:18:34;;;;;;;0.90;0.73;;;20.50;66.20;;;;;;6273781;28;20555;-68
2022/07/02 03:21:37;;;;;;;0.70;0.60;;;20.50;66.80;;;;;;6273835;28;20548;-68
2022/07/02 03:24:41;;;;;;;0.70;0.40;;;20.60;67.70;;;;;;6274720;28;20302;-68
2022/07/02 03:27:45;;;;;;;3.47;1.00;;;20.60;67.90;;;;;;6278414;28;20661;-68
2022/07/02 03:30:48;;;;;;;1.00;0.47;;;20.60;67.70;;;;;;6278168;28;20228;-68
2022/07/02 03:33:51;;;;;;;0.70;0.40;;;20.60;68.10;;;;;;6278537;28;20215;-68
2022/07/02 03:36:54;;;;;;;0.67;0.40;;;20.70;68.60;;;;;;6278199;28;20204;-68
2022/07/02 03:39:59;;;;;;;2.03;0.60;;;20.70;69.30;;;;;;6279324;28;20234;-68
2022/07/02 03:43:02;;;;;;;0.70;0.60;;;20.60;69.10;;;;;;6278645;28;20200;-64
2022/07/02 03:46:05;;;;;;;0.73;0.50;;;20.60;69.30;;;;;;6274307;28;20216;-64
2022/07/02 03:49:08;;;;;;;1.13;0.80;;;20.60;69.90;;;;;;6278656;28;20234;-64
2022/07/02 03:52:12;;;;;;;0.80;0.80;;;20.70;71.10;;;;;;6278200;28;20223;-64
2022/07/02 03:55:16;;;;;;;0.83;0.50;;;20.70;71.50;;;;;;6277817;28;20228;-64
2022/07/02 03:58:19;;;;;;;0.97;0.63;;;20.70;72.00;;;;;;6277730;28;20242;-68
2022/07/02 04:01:22;;;;;;;0.90;0.60;;;20.70;72.30;;;;;;6278087;28;20234;-67
2022/07/02 04:04:26;;;;;;;1.07;0.63;;;20.70;73.30;;;;;;6277399;28;20258;-66
2022/07/02 04:07:29;;;;;;;0.80;0.80;;;20.70;74.40;;;;;;6277633;28;20231;-68
2022/07/02 04:10:33;;;;;;;0.80;0.57;;;20.70;75.20;;;;;;6277440;28;20238;-68
2022/07/02 04:13:36;;;;;;;1.37;1.00;;;20.80;75.30;;;;;;6277840;28;20239;-67
2022/07/02 04:16:40;;;;;;;1.23;1.13;;;20.80;76.20;;;;;;6277139;28;20227;-68
2022/07/02 04:19:43;;;;;;;0.83;0.77;;;20.90;76.30;;;;;;6277275;28;20231;-64
2022/07/02 04:22:46;;;;;;;1.30;0.70;;;21.00;77.00;;;;;;6277281;28;20234;-64
2022/07/02 04:25:50;;;;;;;0.90;0.80;;;21.00;76.90;;;;;;6277068;28;20220;-64
2022/07/02 04:28:54;;;;;;;2.13;0.70;;;21.00;76.40;;;;;;6277383;28;20238;-67
2022/07/02 04:31:57;;;;;;;1.20;1.00;;;21.10;76.70;;;;;;6276558;28;20228;-67
2022/07/02 04:35:00;;;;;;;1.60;0.70;;;21.10;76.70;;;;;;6276751;28;20265;-69
2022/07/02 04:38:04;;;;;;;6.70;0.90;;;21.10;76.90;;;;;;6276038;28;20238;-67
2022/07/02 04:41:09;;;;;;;2.60;0.80;;;21.20;77.40;;;;;;6276760;28;20223;-65
2022/07/02 04:44:12;;;;;;;0.93;0.70;;;21.20;77.30;;;;;;6276149;28;20236;-65
2022/07/02 04:47:15;;;;;;;1.80;0.83;;;21.20;76.90;;;;;;6276296;28;20239;-65
2022/07/02 04:50:18;;;;;;;1.47;0.80;;;21.30;76.70;;;;;;6271054;28;20235;-65
2022/07/02 04:53:21;;;;;;;1.50;0.70;;;21.30;76.80;;;;;;6276057;28;20236;-65
2022/07/02 04:56:27;;;;;;;1.63;0.90;;;21.50;76.60;;;;;;6276043;28;20238;-66
2022/07/02 04:59:30;;;;;;;1.30;0.80;;;21.50;76.30;;;;;;6275848;28;20239;-66
2022/07/02 05:02:40;;;;;;;3.60;0.80;;;21.30;77.40;;;;;;6275827;28;20291;-66
2022/07/02 05:05:43;;;;;;;2.80;1.17;;;21.30;78.30;;;;;;6275743;28;20231;-66
2022/07/02 05:08:46;;;;;;;3.43;1.20;;;21.30;80.00;;;;;;6275439;28;20649;-65
2022/07/02 05:11:51;;;;;;;1.70;1.00;;;21.40;80.90;;;;;;6275201;28;20364;-65
2022/07/02 05:14:54;;;;;;;2.17;1.27;;;21.60;81.60;;;;;;6275464;28;20303;-64
2022/07/02 05:17:57;;;;;;;1.60;1.10;;;21.80;81.40;;;;;;6275479;28;20231;-65
2022/07/02 05:21:00;;;;;;;2.50;1.30;;;21.90;81.80;;;;;;6275743;28;20532;-64
2022/07/02 05:24:04;;;;;;;1.30;1.20;;;21.90;81.60;;;;;;6275500;28;20237;-64
2022/07/02 05:27:08;;;;;;;3.57;1.20;;;22.00;81.90;;;;;;6275633;28;20228;-64
2022/07/02 05:30:12;;;;;;;2.13;1.30;;;22.20;82.60;;;;;;6275234;28;20254;-65
2022/07/02 05:33:15;;;;;;;1.33;1.17;;;22.20;80.90;;;;;;6275249;28;20227;-65
2022/07/02 05:36:18;;;;;;;1.30;1.20;;;22.40;80.50;;;;;;6275082;28;20574;-64
2022/07/02 05:39:21;;;;;;;1.87;1.27;;;22.60;79.70;;;;;;6275124;28;20234;-64
2022/07/02 05:42:26;;;;;;;1.57;0.97;;;22.60;78.20;;;;;;6274799;28;20238;-64
2022/07/02 05:45:29;;;;;;;1.30;1.20;;;22.40;78.80;;;;;;6274974;28;20242;-64
2022/07/02 05:48:33;;;;;;;1.40;1.00;;;22.30;79.30;;;;;;6273875;28;20249;-64
2022/07/02 05:51:36;;;;;;;1.30;1.20;;;22.40;79.50;;;;;;6274690;28;20295;-64
2022/07/02 05:54:39;;;;;;;2.60;1.57;;;22.60;78.70;;;;;;6270355;28;20231;-64
2022/07/02 05:57:44;;;;;;;1.77;1.20;;;22.80;77.90;;;;;;6274613;28;20238;-64
2022/07/02 06:00:47;;;;;;;2.90;1.30;;;23.00;76.10;;;;;;6274825;28;20227;-64
2022/07/02 06:03:51;;;;;;;1.93;1.20;;;23.00;74.60;;;;;;6274434;28;20559;-65
2022/07/02 06:10:18;;;;;;;4.17;1.10;;;23.40;74.70;;;;;;6274552;28;20654;-67
2022/07/02 06:13:22;;;;;;;0.83;0.70;;;23.60;73.10;;;;;;6274737;28;20306;-68
2022/07/02 06:16:27;;;;;;;1.23;1.13;;;24.10;71.90;;;;;;6274613;28;20223;-68
2022/07/02 06:19:31;;;;;;;0.87;0.57;;;24.50;69.30;;;;;;6274313;28;20361;-68
2022/07/02 06:22:34;;;;;;;1.10;0.80;;;25.00;67.60;;;;;;6274484;28;20570;-68
2022/07/02 06:25:37;;;;;;;2.27;1.17;;;25.70;65.10;;;;;;6274500;28;20223;-68
2022/07/02 06:28:41;;;;;;;1.47;1.00;;;26.10;63.60;;;;;;6275118;28;20223;-68
2022/07/02 06:31:44;;;;;;;1.30;0.80;;;26.80;61.60;;;;;;6275442;28;20223;-69
2022/07/02 06:34:48;;;;;;;3.17;0.87;;;27.20;59.60;;;;;;6274616;28;20227;-68
2022/07/02 06:37:53;;;;;;;0.93;0.80;;;27.80;59.30;;;;;;6275174;28;20219;-68
2022/07/02 06:40:56;;;;;;;0.87;0.80;;;27.40;57.60;;;;;;6274904;28;20356;-69
2022/07/02 06:44:00;;;;;;;1.97;1.13;;;27.40;58.80;;;;;;6275096;28;20222;-68
2022/07/02 06:47:04;;;;;;;2.23;1.00;;;28.40;57.40;;;;;;6274859;28;20687;-69
2022/07/02 06:50:09;;;;;;;1.20;0.80;;;29.20;55.50;;;;;;6275853;28;20235;-68
2022/07/02 06:53:12;;;;;;;0.80;0.60;;;29.20;54.40;;;;;;6275471;28;20234;-68
2022/07/02 06:56:15;;;;;;;1.33;1.10;;;29.70;53.20;;;;;;6272406;28;20668;-70
2022/07/02 06:59:19;;;;;;;0.97;0.63;;;29.50;52.90;;;;;;6275427;28;20231;-67
2022/07/02 07:02:24;;;;;;;1.23;1.10;;;30.30;52.20;;;;;;6279085;28;20231;-68
2022/07/02 07:05:27;;;;;;;1.10;0.70;;;31.20;50.20;;;;;;6278662;28;20237;-68
2022/07/02 07:08:30;;;;;;;1.45;0.70;;;32.10;49.00;;;;;;6278944;28;20235;-69
2022/07/02 07:11:34;;;;;;;1.80;0.80;;;32.10;48.40;;;;;;6278521;28;20309;-69
2022/07/02 07:14:38;;;;;;;1.45;0.98;;;32.90;47.10;;;;;;6278601;28;20226;-68
2022/07/02 07:17:42;;;;;;;0.95;0.80;;;33.20;45.40;;;;;;6279074;28;20369;-68
2022/07/02 07:20:47;;;;;;;1.17;0.85;;;33.80;45.30;;;;;;6278303;28;20373;-68
2022/07/02 07:23:50;;;;;;;0.75;0.50;;;34.60;43.50;;;;;;6278570;28;20223;-68
2022/07/02 07:26:53;;;;;;;1.08;0.50;;;34.80;42.80;;;;;;6279075;28;20333;-68
2022/07/02 07:29:58;;;;;;;1.15;0.88;;;35.10;42.10;;;;;;6278588;28;20226;-68
2022/07/02 07:33:01;;;;;;;1.00;0.80;;;35.30;41.60;;;;;;6278249;28;20233;-68
2022/07/02 07:36:05;;;;;;;1.13;0.85;;;35.90;41.30;;;;;;6277731;28;20226;-66
2022/07/02 07:39:08;;;;;;;0.90;0.70;;;36.50;40.60;;;;;;6278291;28;20231;-68
2022/07/02 07:42:11;;;;;;;1.98;0.70;;;36.90;39.80;;;;;;6278036;28;20226;-68
2022/07/02 07:45:16;;;;;;;1.17;1.00;;;37.30;38.70;;;;;;6278050;28;20235;-68
2022/07/02 07:48:19;;;;;;;1.88;0.82;;;36.50;38.50;;;;;;6277680;28;20691;-68
2022/07/02 07:51:22;;;;;;;1.05;0.80;;;36.10;39.60;;;;;;6277725;28;20227;-68
2022/07/02 07:54:25;;;;;;;0.80;0.57;;;35.70;38.90;;;;;;6277607;28;20372;-68
2022/07/02 07:57:29;;;;;;;1.02;0.70;;;35.20;39.30;;;;;;6277496;28;20238;-67
2022/07/02 08:00:33;;;;;;;2.50;0.70;;;35.00;39.80;;;;;;6277383;28;20238;-67
2022/07/02 08:03:36;;;;;;;1.05;0.70;;;34.30;40.00;;;;;;6277315;28;20238;-68
2022/07/02 08:06:40;;;;;;;1.13;0.80;;;33.60;41.60;;;;;;6277352;28;20227;-68
2022/07/02 08:09:43;;;;;;;1.10;0.77;;;32.90;42.60;;;;;;6277186;28;20238;-68
2022/07/02 08:12:47;;;;;;;1.10;0.77;;;31.90;43.80;;;;;;6276149;28;20240;-69
2022/07/02 08:15:52;;;;;;;1.55;1.20;;;31.60;45.00;;;;;;6277183;28;20237;-68
2022/07/02 08:18:55;;;;;;;1.17;0.90;;;31.30;46.10;;;;;;6276835;28;20357;-68
2022/07/02 08:21:58;;;;;;;1.20;1.10;;;31.10;46.70;;;;;;6276840;28;20678;-67
2022/07/02 08:25:01;;;;;;;0.80;0.70;;;30.70;47.00;;;;;;6277193;28;20203;-67
2022/07/02 08:28:05;;;;;;;1.35;0.85;;;30.40;47.60;;;;;;6276956;28;20253;-66
2022/07/02 08:31:09;;;;;;;1.05;0.80;;;30.10;48.10;;;;;;6277073;28;20199;-65
2022/07/02 08:34:13;;;;;;;1.38;1.27;;;29.30;49.20;;;;;;6275230;28;20553;-65
2022/07/02 08:37:16;;;;;;;1.70;0.70;;;29.30;49.90;;;;;;6276397;28;20237;-68
2022/07/02 08:40:24;;;;;;;1.70;1.40;;;29.10;48.90;;;;;;6273754;28;20273;-68
2022/07/02 08:43:27;;;;;;;1.93;1.10;;;28.50;50.80;;;;;;6274009;28;20226;-68
2022/07/02 08:46:33;;;;;;;1.20;1.00;;;28.00;50.90;;;;;;6275596;28;20237;-69
2022/07/02 08:49:40;;;;;;;1.43;0.83;;;28.20;51.00;;;;;;6276053;28;20230;-68
2022/07/02 08:52:45;;;;;;;1.17;1.00;;;28.30;51.00;;;;;;6273139;28;20225;-68
2022/07/02 08:55:51;;;;;;;1.00;0.90;;;28.50;50.10;;;;;;6275617;28;20215;-68
2022/07/02 08:58:55;;;;;;;1.33;0.90;;;28.60;50.20;;;;;;6273370;28;20234;-68
2022/07/02 09:02:01;;;;;;;1.27;1.10;;;28.80;50.40;;;;;;6274722;28;20227;-68
2022/07/02 09:05:06;;;;;;;0.90;0.70;;;28.90;49.20;;;;;;6260558;28;20234;-68
2022/07/02 09:08:11;;;;;;;1.20;1.03;;;28.80;48.80;;;;;;6272724;28;20241;-69
2022/07/02 09:11:15;;;;;;;1.07;0.97;;;29.10;48.60;;;;;;6274692;28;20223;-69
2022/07/02 09:14:19;;;;;;;3.03;0.87;;;29.30;48.30;;;;;;6273800;28;20672;-69
2022/07/02 09:17:24;;;;;;;1.77;0.80;;;29.30;49.30;;;;;;6274458;28;20219;-69
2022/07/02 09:20:27;;;;;;;1.90;1.20;;;28.90;48.50;;;;;;6274592;28;20223;-68
2022/07/02 09:23:30;;;;;;;1.70;1.10;;;29.00;49.20;;;;;;6272630;28;20227;-69
2022/07/02 09:26:33;;;;;;;2.93;1.03;;;29.00;49.20;;;;;;6274870;28;20531;-69
2022/07/02 09:29:44;;;;;;;2.20;0.70;;;29.20;49.00;;;;;;6275070;28;20257;-68
2022/07/02 09:32:48;;;;;;;1.30;1.00;;;29.40;48.30;;;;;;6274853;28;20219;-68
2022/07/02 09:35:52;;;;;;;1.20;0.90;;;29.40;48.30;;;;;;6273015;28;20230;-68
2022/07/02 09:38:55;;;;;;;1.27;0.90;;;29.50;48.80;;;;;;6275573;28;20235;-69
2022/07/02 09:41:59;;;;;;;1.50;1.30;;;29.30;49.00;;;;;;6275263;28;20242;-68
2022/07/02 09:45:03;;;;;;;1.70;1.40;;;29.20;48.70;;;;;;6274974;28;20249;-68
2022/07/02 09:48:08;;;;;;;1.10;0.90;;;29.10;50.60;;;;;;6274633;28;20241;-68
2022/07/02 09:51:11;;;;;;;1.40;1.10;;;29.00;49.90;;;;;;6275032;28;20233;-68
2022/07/02 09:54:19;;;;;;;1.10;0.93;;;28.90;49.00;;;;;;6275068;28;20702;-69
2022/07/02 09:57:22;;;;;;;1.23;1.00;;;28.80;50.40;;;;;;6274531;28;20231;-69
2022/07/02 10:00:27;;;;;;;1.23;1.00;;;28.70;50.30;;;;;;6274474;28;20238;-70
2022/07/02 10:03:33;;;;;;;2.10;1.37;;;28.60;51.40;;;;;;6274763;28;20540;-68
2022/07/02 10:06:36;;;;;;;1.57;1.20;;;28.80;50.70;;;;;;6274891;28;20227;-70
2022/07/02 10:09:42;;;;;;;1.00;0.80;;;28.90;50.60;;;;;;6269937;28;20235;-70
2022/07/02 10:12:45;;;;;;;1.90;1.23;;;29.00;51.00;;;;;;6277128;28;20243;-69
2022/07/02 10:15:53;;;;;;;4.03;1.33;;;28.30;53.40;;;;;;6278740;28;20238;-69
2022/07/02 10:18:59;;;;;;;2.13;1.30;;;28.30;53.60;;;;;;6276635;28;20235;-68
2022/07/02 10:22:03;;;;;;;2.17;1.60;;;28.60;53.40;;;;;;6274520;28;20224;-68
2022/07/02 10:25:08;;;;;;;2.00;1.90;;;28.60;52.90;;;;;;6274648;28;20209;-70
2022/07/02 10:28:11;;;;;;;2.23;0.87;;;28.40;53.00;;;;;;6274370;28;20230;-69
2022/07/02 10:31:18;;;;;;;1.63;1.30;;;28.50;53.90;;;;;;6274642;28;20230;-70
2022/07/02 10:34:35;;;;;;;1.67;1.40;;;28.40;53.50;;;;;;6276442;28;20227;-68
2022/07/02 10:37:40;;;;;;;2.30;1.40;;;28.50;53.50;;;;;;6279670;28;20227;-68
2022/07/02 10:40:49;;;;;;;5.43;1.40;;;28.40;53.90;;;;;;6279716;28;20347;-69
2022/07/02 10:43:55;;;;;;;2.90;1.43;;;28.60;53.50;;;;;;6279284;28;20219;-67
2022/07/02 10:47:00;;;;;;;1.47;1.10;;;28.70;52.90;;;;;;6279608;28;20241;-68
2022/07/02 10:50:05;;;;;;;1.93;1.77;;;28.90;53.70;;;;;;6278152;28;20575;-67
2022/07/02 10:53:10;;;;;;;1.37;1.23;;;28.80;53.80;;;;;;6278019;28;20234;-68
2022/07/02 10:56:13;;;;;;;3.53;1.60;;;29.00;53.00;;;;;;6278636;28;20857;-68
2022/07/02 10:59:23;;;;;;;1.73;1.17;;;29.20;53.20;;;;;;6278299;28;20227;-68
2022/07/02 11:02:34;;;;;;;2.77;0.90;;;29.50;52.80;;;;;;6277023;28;20234;-68
2022/07/02 11:05:52;;;;;;;1.77;1.00;;;29.70;52.00;;;;;;6277928;28;20223;-67
2022/07/02 11:08:58;;;;;;;1.50;1.37;;;28.90;52.70;;;;;;6277866;28;20629;-67
2022/07/02 11:12:02;;;;;;;1.90;1.40;;;29.10;52.90;;;;;;6278066;28;20530;-69
2022/07/02 11:15:16;;;;;;;1.57;1.47;;;29.00;53.60;;;;;;6277979;28;20227;-68
2022/07/02 11:18:22;;;;;;;4.20;1.50;;;29.10;54.60;;;;;;6276843;28;20238;-68
2022/07/02 11:21:28;;;;;;;2.33;1.10;;;29.10;53.80;;;;;;6277487;28;20258;-67
2022/07/02 11:24:32;;;;;;;1.70;1.40;;;28.90;53.80;;;;;;6278373;28;20227;-68
2022/07/02 11:27:36;;;;;;;2.20;1.20;;;29.00;54.50;;;;;;6278485;28;20250;-68
2022/07/02 11:30:39;;;;;;;2.30;1.70;;;28.80;55.50;;;;;;6278331;28;20238;-67
2022/07/02 11:33:48;;;;;;;1.90;1.70;;;28.80;54.50;;;;;;6278333;28;20227;-68
2022/07/02 11:36:53;;;;;;;1.20;1.10;;;28.40;55.00;;;;;;6277931;28;20215;-67
2022/07/02 11:39:56;;;;;;;1.27;1.17;;;28.50;54.90;;;;;;6302351;28;20640;-67
2022/07/02 11:43:00;;;;;;;2.17;1.30;;;28.80;55.20;;;;;;6302233;28;20237;-67
2022/07/02 11:46:03;;;;;;;1.93;1.40;;;29.00;54.60;;;;;;6298081;28;20627;-68
2022/07/02 11:49:14;;;;;;;2.80;1.40;;;28.90;55.00;;;;;;6302253;28;20230;-67
2022/07/02 11:52:19;;;;;;;1.40;1.10;;;28.90;55.40;;;;;;6302121;28;20219;-67
2022/07/02 11:55:23;;;;;;;1.67;1.40;;;28.90;55.20;;;;;;6302491;28;20218;-67
2022/07/02 11:58:26;;;;;;;2.03;1.50;;;29.10;55.30;;;;;;6302111;28;20360;-67
2022/07/02 12:01:31;;;;;;;2.87;1.20;;;29.30;55.00;;;;;;6301867;28;20245;-67
2022/07/02 12:04:34;;;;;;;2.07;1.27;;;29.50;55.30;;;;;;6302367;28;20668;-67
2022/07/02 12:07:42;;;;;;;2.30;1.50;;;29.30;54.90;;;;;;6302398;28;20219;-67
2022/07/02 12:10:45;;;;;;;1.40;1.27;;;29.00;55.20;;;;;;6302609;28;20218;-66
2022/07/02 12:13:51;;;;;;;1.53;1.33;;;29.20;56.50;;;;;;6302079;28;20233;-68
2022/07/02 12:16:55;;;;;;;2.20;1.40;;;29.20;55.30;;;;;;6293123;28;20223;-68
2022/07/02 12:19:58;;;;;;;1.50;1.27;;;29.10;55.50;;;;;;6302220;28;20254;-68
2022/07/02 12:23:03;;;;;;;1.43;1.20;;;29.10;55.60;;;;;;6301779;28;20226;-68
2022/07/02 12:26:06;;;;;;;2.43;1.63;;;29.10;56.00;;;;;;6301857;28;20227;-68
2022/07/02 12:32:32;;;;;;;1.40;1.20;;;29.00;56.00;;;;;;6301685;28;20230;-68
2022/07/02 12:35:35;;;;;;;3.20;1.30;;;28.80;56.00;;;;;;6301917;28;20232;-68
2022/07/02 12:38:46;;;;;;;1.40;1.27;;;28.90;56.90;;;;;;6301481;28;20565;-69
2022/07/02 12:41:49;;;;;;;2.10;1.10;;;29.00;57.20;;;;;;6300669;28;20222;-67
2022/07/02 12:44:55;;;;;;;2.07;1.30;;;29.30;56.70;;;;;;6300678;28;20222;-67
2022/07/02 12:48:00;;;;;;;2.70;1.30;;;29.50;55.50;;;;;;6298262;28;20218;-67
2022/07/02 12:51:10;;;;;;;2.73;1.37;;;29.70;54.50;;;;;;6300662;28;20225;-68
2022/07/02 12:54:15;;;;;;;3.10;1.37;;;29.70;55.20;;;;;;6300852;28;20678;-68
2022/07/02 12:57:20;;;;;;;1.97;1.20;;;29.90;55.50;;;;;;6297867;28;20229;-67
2022/07/02 13:00:24;;;;;;;2.20;1.40;;;30.00;54.20;;;;;;6300245;28;20231;-68
2022/07/02 13:03:29;;;;;;;1.33;1.20;;;29.90;53.60;;;;;;6295240;28;20218;-67
2022/07/02 13:06:32;;;;;;;1.20;1.10;;;29.40;54.70;;;;;;6300432;28;20231;-67
2022/07/02 13:09:37;;;;;;;1.40;1.30;;;29.30;54.90;;;;;;6300089;28;20241;-67
2022/07/02 13:12:40;;;;;;;2.53;1.20;;;29.10;55.20;;;;;;6300179;28;20229;-67
2022/07/02 13:15:44;;;;;;;1.40;1.30;;;29.20;55.90;;;;;;6300453;28;20226;-68
2022/07/02 13:18:47;;;;;;;1.80;1.40;;;29.30;55.60;;;;;;6292550;28;20226;-67
2022/07/02 13:21:55;;;;;;;1.67;1.40;;;29.40;56.00;;;;;;6269270;28;20365;-67
2022/07/02 13:25:00;;;;;;;1.93;1.40;;;29.10;55.80;;;;;;6275541;28;20207;-67
2022/07/02 13:28:04;;;;;;;2.60;1.00;;;28.70;56.60;;;;;;6275621;28;20202;-67
2022/07/02 13:31:07;;;;;;;1.83;1.40;;;28.60;56.70;;;;;;6275111;28;20209;-67
2022/07/02 13:34:10;;;;;;;3.73;1.50;;;28.80;57.00;;;;;;6274920;28;20203;-67
2022/07/02 13:37:14;;;;;;;2.60;1.60;;;28.70;56.40;;;;;;6275156;28;20209;-68
2022/07/02 13:40:18;;;;;;;3.77;1.70;;;28.50;57.20;;;;;;6275722;28;20231;-68
2022/07/02 13:43:22;;;;;;;1.50;1.33;;;28.50;57.10;;;;;;6274957;28;20235;-68
2022/07/02 13:46:25;;;;;;;2.60;1.50;;;28.40;56.80;;;;;;6275028;28;20238;-69
2022/07/02 13:49:28;;;;;;;1.23;1.13;;;28.30;57.40;;;;;;6275417;28;20224;-70
2022/07/02 13:52:31;;;;;;;1.93;1.80;;;28.40;58.00;;;;;;6279724;28;20229;-69
2022/07/02 13:55:36;;;;;;;2.20;1.20;;;28.40;58.40;;;;;;6275493;28;20218;-69
2022/07/02 13:58:39;;;;;;;1.60;1.37;;;28.30;58.20;;;;;;6274267;28;20569;-67
2022/07/02 14:01:42;;;;;;;2.23;1.50;;;28.40;58.20;;;;;;6274894;28;20219;-67
2022/07/02 14:04:52;;;;;;;3.37;1.87;;;28.50;58.10;;;;;;6274764;28;20238;-67
2022/07/02 14:07:56;;;;;;;2.10;1.33;;;28.60;58.00;;;;;;6274430;28;20234;-68
2022/07/02 14:11:01;;;;;;;1.70;1.60;;;28.70;57.90;;;;;;6273611;28;20234;-67
2022/07/02 14:14:04;;;;;;;1.77;1.27;;;28.70;57.80;;;;;;6274361;28;20557;-68
2022/07/02 14:17:07;;;;;;;1.57;1.40;;;28.60;57.60;;;;;;6274513;28;20257;-68
2022/07/02 14:20:11;;;;;;;2.73;2.00;;;28.30;57.80;;;;;;6274047;28;20239;-68
2022/07/02 14:23:34;;;;;;;1.70;1.60;;;28.40;58.20;;;;;;6269548;28;20346;-67
2022/07/02 14:26:38;;;;;;;2.00;1.50;;;28.60;58.10;;;;;;6274595;28;20227;-68
2022/07/02 14:29:42;;;;;;;1.93;1.70;;;28.50;58.50;;;;;;6275033;28;20234;-68
2022/07/02 14:32:45;;;;;;;1.57;1.47;;;28.70;57.90;;;;;;6274234;28;20229;-67
2022/07/02 14:35:50;;;;;;;3.50;1.50;;;28.90;57.60;;;;;;6274408;28;20227;-67
2022/07/02 14:38:55;;;;;;;3.70;2.00;;;29.10;56.70;;;;;;6272998;28;20235;-70
2022/07/02 14:42:00;;;;;;;4.13;2.13;;;29.00;56.30;;;;;;6272442;28;20239;-69
2022/07/02 14:45:04;;;;;;;3.40;1.70;;;28.90;56.30;;;;;;6272753;28;20308;-66
2022/07/02 14:48:08;;;;;;;2.40;1.50;;;28.90;56.30;;;;;;6272497;28;20242;-67
2022/07/02 14:51:11;;;;;;;1.50;1.40;;;28.80;56.30;;;;;;6272052;28;20576;-66
2022/07/02 14:54:14;;;;;;;1.70;1.53;;;28.90;56.40;;;;;;6292409;28;20237;-67
2022/07/02 14:57:19;;;;;;;2.97;1.87;;;29.10;55.90;;;;;;6278914;28;20230;-67
2022/07/02 15:00:22;;;;;;;1.47;1.37;;;29.20;55.50;;;;;;6273315;28;20576;-67
2022/07/02 15:03:25;;;;;;;1.70;1.60;;;29.30;55.20;;;;;;6273504;28;20237;-68
2022/07/02 15:06:28;;;;;;;1.03;0.93;;;29.30;56.00;;;;;;6273861;28;20238;-67
2022/07/02 15:09:32;;;;;;;1.30;1.20;;;29.40;55.70;;;;;;6272494;28;20672;-68
2022/07/02 15:12:36;;;;;;;1.93;1.40;;;29.40;55.10;;;;;;6272462;28;20215;-68
2022/07/02 15:19:00;;;;;;;1.30;1.20;;;29.40;55.20;;;;;;6271742;28;20223;-68
2022/07/02 15:22:06;;;;;;;2.50;1.83;;;29.40;55.40;;;;;;6316891;28;20202;-68
2022/07/02 15:25:10;;;;;;;1.43;1.33;;;29.40;55.20;;;;;;6315133;28;20229;-70
2022/07/02 15:28:22;;;;;;;2.33;1.50;;;29.30;55.60;;;;;;6309294;28;20221;-70
2022/07/02 15:31:25;;;;;;;2.80;1.40;;;29.20;56.20;;;;;;6311749;28;20217;-70
2022/07/02 15:34:30;;;;;;;2.40;1.40;;;29.40;56.10;;;;;;6314892;28;20561;-70
2022/07/02 15:37:37;;;;;;;1.87;1.40;;;29.40;55.80;;;;;;6318288;28;20667;-70
2022/07/02 15:40:40;;;;;;;2.47;1.43;;;29.40;55.70;;;;;;6313218;28;20249;-70
2022/07/02 15:43:46;;;;;;;2.57;1.80;;;29.40;55.70;;;;;;6327449;28;20226;-68
2022/07/02 15:46:49;;;;;;;5.03;1.97;;;29.40;55.40;;;;;;6327415;28;20222;-69
2022/07/02 15:49:53;;;;;;;1.87;1.63;;;29.40;55.40;;;;;;6322871;28;20260;-68
2022/07/02 15:53:03;;;;;;;1.63;1.10;;;29.30;55.90;;;;;;6309931;28;20236;-69
2022/07/02 15:56:06;;;;;;;2.63;1.53;;;29.50;55.70;;;;;;6302896;28;20303;-68
2022/07/02 15:59:13;;;;;;;3.00;1.47;;;29.60;54.80;;;;;;6306569;28;20225;-70
2022/07/02 16:02:23;;;;;;;1.80;1.70;;;29.60;55.10;;;;;;6308207;28;20566;-69
2022/07/02 16:05:27;;;;;;;3.50;1.93;;;29.50;55.20;;;;;;6307344;28;20260;-69
2022/07/02 16:08:33;;;;;;;6.50;6.00;;;29.40;55.10;;;;;;6300074;28;20253;-70
2022/07/02 16:11:36;;;;;;;3.70;1.60;;;29.50;55.30;;;;;;6301647;28;20230;-69
2022/07/02 16:14:42;;;;;;;1.70;1.60;;;29.40;55.20;;;;;;6301187;28;20230;-70